Time;durP1;ratioP1;P1;durP2;ratioP2;P2;SDS_P1;SDS_P2;PMS_P1;PMS_P2;Temp;Humidity;BMP_temperature;BMP_pressure;BME280_temperature;BME280_humidity;BME280_pressure;Samples;Min_cycle;Max_cycle;Signal;HPM_P1;HPM_P2
2021/01/30 14:44:48;;;;;;;10.23;6.17;;;16.90;49.40;;;;;;5090292;27;21080;-49
2021/01/30 14:47:17;;;;;;;10.80;5.37;;;17.30;48.40;;;;;;5060473;28;21056;-52
2021/01/30 14:49:44;;;;;;;7.50;5.57;;;17.70;47.90;;;;;;5072590;28;20469;-50
2021/01/30 14:52:58;;;;;;;9.20;5.30;;;18.10;50.00;;;;;;5072070;27;52849;-45
2021/01/30 14:59:39;;;;;;;15.13;9.60;;;19.30;40.50;;;;;;5081222;27;20570;-40
2021/01/30 15:02:05;;;;;;;13.40;9.90;;;17.30;43.70;;;;;;5043392;28;20494;-40
2021/01/30 15:04:32;;;;;;;31.53;20.77;;;15.30;46.60;;;;;;5068009;28;20968;-40
2021/01/30 15:06:59;;;;;;;42.03;24.43;;;13.50;49.70;;;;;;5063863;28;20542;-40
2021/01/30 15:09:28;;;;;;;47.93;27.90;;;12.00;53.40;;;;;;5033516;28;20491;-40
2021/01/30 15:11:54;;;;;;;24.13;14.40;;;10.70;57.10;;;;;;5037771;28;20799;-40
2021/01/30 15:14:20;;;;;;;36.50;22.87;;;9.60;60.20;;;;;;5047971;28;20448;-39
2021/01/30 15:16:48;;;;;;;48.50;26.17;;;8.60;63.30;;;;;;5062927;28;20791;-39
2021/01/30 15:19:16;;;;;;;34.33;23.23;;;7.90;65.50;;;;;;5048030;28;20489;-39
2021/01/30 15:21:43;;;;;;;39.93;22.60;;;7.20;68.00;;;;;;5057213;28;20494;-40
2021/01/30 15:24:09;;;;;;;30.20;19.10;;;6.70;70.50;;;;;;5063862;28;20538;-39
2021/01/30 15:26:37;;;;;;;27.67;16.70;;;6.30;72.10;;;;;;5063325;28;20493;-38
2021/01/30 15:29:05;;;;;;;39.93;24.30;;;5.90;73.90;;;;;;5046125;28;20561;-39
2021/01/30 15:31:31;;;;;;;133.50;93.80;;;5.60;75.70;;;;;;5030846;28;20467;-39
2021/01/30 15:33:58;;;;;;;19.23;15.60;;;5.30;76.80;;;;;;5018144;28;20470;-39
2021/01/30 15:36:25;;;;;;;20.97;19.07;;;5.10;78.00;;;;;;5061803;28;20880;-40
2021/01/30 15:38:51;;;;;;;15.93;14.43;;;5.00;79.00;;;;;;5050978;28;20476;-40
2021/01/30 15:41:17;;;;;;;11.50;10.30;;;4.70;79.60;;;;;;5051148;28;20537;-40
2021/01/30 15:43:44;;;;;;;64.13;16.33;;;4.60;80.10;;;;;;5033093;28;20648;-38
2021/01/30 15:46:10;;;;;;;9.73;8.73;;;4.50;81.20;;;;;;5064611;28;20461;-40
2021/01/30 15:48:37;;;;;;;12.13;10.87;;;4.40;81.70;;;;;;5012925;28;20454;-39
2021/01/30 15:51:03;;;;;;;10.17;8.40;;;4.30;82.20;;;;;;5057675;28;20555;-39
2021/01/30 15:53:30;;;;;;;7.77;6.97;;;4.20;82.70;;;;;;5045064;28;20735;-38
2021/01/30 15:55:59;;;;;;;11.30;9.47;;;4.10;83.00;;;;;;5024954;28;20513;-40
2021/01/30 15:58:28;;;;;;;14.30;12.20;;;4.00;83.40;;;;;;5049486;28;20893;-39
2021/01/30 16:00:56;;;;;;;14.70;11.30;;;4.00;84.30;;;;;;5033376;28;20796;-38
2021/01/30 16:03:23;;;;;;;13.73;10.33;;;3.90;84.30;;;;;;5043663;28;21046;-39
2021/01/30 16:05:50;;;;;;;12.57;10.57;;;3.90;84.40;;;;;;5049372;28;20451;-38
2021/01/30 16:08:17;;;;;;;12.20;10.27;;;3.80;84.70;;;;;;5046222;28;20941;-40
2021/01/30 16:10:45;;;;;;;14.57;12.43;;;3.80;85.20;;;;;;5035631;28;20554;-39
2021/01/30 16:13:14;;;;;;;17.17;11.20;;;3.80;85.00;;;;;;5036758;28;20862;-39
2021/01/30 16:15:40;;;;;;;14.60;12.40;;;3.80;85.10;;;;;;5030700;28;20479;-40
2021/01/30 16:18:15;;;;;;;13.20;11.00;;;3.70;85.20;;;;;;5013775;28;21114;-40
2021/01/30 16:20:50;;;;;;;10.03;7.97;;;3.70;85.10;;;;;;5014108;28;20464;-38
2021/01/30 16:23:19;;;;;;;11.00;8.43;;;3.70;85.10;;;;;;5033543;28;20470;-38
2021/01/30 16:25:46;;;;;;;10.90;8.87;;;3.70;85.40;;;;;;5045364;28;20981;-39
2021/01/30 16:28:13;;;;;;;10.27;8.33;;;3.70;85.40;;;;;;5021720;28;20448;-39
2021/01/30 16:30:39;;;;;;;12.23;10.93;;;3.60;85.50;;;;;;5050019;28;20455;-38
2021/01/30 16:33:06;;;;;;;10.37;8.20;;;3.60;85.90;;;;;;5035028;28;20518;-38
2021/01/30 16:35:32;;;;;;;11.17;8.53;;;3.50;86.00;;;;;;5037097;28;20512;-39
2021/01/30 16:37:59;;;;;;;12.03;9.23;;;3.50;86.10;;;;;;5005859;28;20515;-38
2021/01/30 16:40:25;;;;;;;11.60;8.70;;;3.50;86.40;;;;;;5012267;28;20467;-38
2021/01/30 16:42:53;;;;;;;11.90;8.90;;;3.50;86.40;;;;;;5033859;28;20475;-38
2021/01/30 16:45:22;;;;;;;11.30;9.87;;;3.50;86.40;;;;;;5029259;28;20443;-39
2021/01/30 16:47:49;;;;;;;10.60;8.30;;;3.50;86.60;;;;;;5034592;28;20841;-38
2021/01/30 16:50:16;;;;;;;8.97;8.00;;;3.50;86.40;;;;;;5035453;28;20447;-38
2021/01/30 16:52:42;;;;;;;8.37;7.30;;;3.50;86.60;;;;;;5030759;28;21095;-38
2021/01/30 16:55:12;;;;;;;8.77;7.87;;;3.50;86.60;;;;;;4993748;28;20463;-39
2021/01/30 16:57:40;;;;;;;8.90;7.60;;;3.50;86.70;;;;;;5016595;28;20479;-38
2021/01/30 17:00:13;;;;;;;11.10;9.27;;;3.50;86.60;;;;;;5014104;28;20872;-39
2021/01/30 17:02:39;;;;;;;9.23;8.33;;;3.40;86.70;;;;;;5051784;28;20550;-40
2021/01/30 17:05:07;;;;;;;11.57;8.17;;;3.40;87.00;;;;;;5013091;28;20509;-39
2021/01/30 17:07:33;;;;;;;10.40;7.90;;;3.40;87.20;;;;;;5008712;28;20542;-39
2021/01/30 17:10:00;;;;;;;9.20;7.97;;;3.40;87.20;;;;;;5023426;28;20550;-39
2021/01/30 17:12:26;;;;;;;10.83;8.20;;;3.50;87.30;;;;;;4999680;28;20499;-40
2021/01/30 17:14:52;;;;;;;11.17;7.83;;;3.50;87.20;;;;;;5018084;28;21016;-41
2021/01/30 17:17:21;;;;;;;9.30;8.30;;;3.50;87.00;;;;;;5012118;28;20455;-39
2021/01/30 17:19:49;;;;;;;9.40;8.60;;;3.50;87.20;;;;;;5011939;28;20685;-39
2021/01/30 17:22:15;;;;;;;9.40;8.40;;;3.50;87.00;;;;;;4998084;28;20483;-39
2021/01/30 17:24:43;;;;;;;8.93;7.90;;;3.50;87.10;;;;;;5031746;28;20470;-38
2021/01/30 17:27:09;;;;;;;10.33;7.90;;;3.50;87.10;;;;;;5016894;28;20539;-39
2021/01/30 17:29:37;;;;;;;10.53;9.03;;;3.40;87.10;;;;;;5029145;28;20490;-37
2021/01/30 17:32:04;;;;;;;13.47;10.77;;;3.40;87.30;;;;;;5029943;28;20471;-38
2021/01/30 17:34:34;;;;;;;9.80;8.10;;;3.40;87.40;;;;;;5028235;28;20483;-40
2021/01/30 17:37:04;;;;;;;9.17;7.80;;;3.40;87.50;;;;;;5035061;28;20490;-39
2021/01/30 17:39:30;;;;;;;10.73;9.60;;;3.40;87.40;;;;;;5044176;28;20487;-40
2021/01/30 17:41:57;;;;;;;13.30;10.50;;;3.40;87.40;;;;;;5020259;28;20451;-38
2021/01/30 17:44:23;;;;;;;11.63;9.17;;;3.40;87.50;;;;;;5012717;28;20534;-39
2021/01/30 17:46:52;;;;;;;12.30;10.37;;;3.40;87.40;;;;;;5031993;28;20534;-39
2021/01/30 17:49:19;;;;;;;12.97;10.30;;;3.40;87.40;;;;;;5035495;28;20853;-37
2021/01/30 17:51:46;;;;;;;16.00;11.57;;;3.40;87.50;;;;;;5028957;28;21040;-38
2021/01/30 17:54:13;;;;;;;15.60;11.90;;;3.40;87.40;;;;;;4995672;28;20494;-40
2021/01/30 17:56:42;;;;;;;17.77;10.73;;;3.50;87.60;;;;;;5031874;28;20495;-40
2021/01/30 17:59:09;;;;;;;11.80;10.40;;;3.50;87.50;;;;;;5035201;28;20515;-38
2021/01/30 18:01:36;;;;;;;13.63;9.90;;;3.50;87.40;;;;;;5012715;28;20520;-39
2021/01/30 18:04:03;;;;;;;10.27;8.63;;;3.50;87.50;;;;;;5033479;28;20487;-38
2021/01/30 18:06:30;;;;;;;10.37;9.13;;;3.50;87.40;;;;;;5012360;28;20867;-39
2021/01/30 18:08:57;;;;;;;15.83;10.60;;;3.40;87.40;;;;;;5004328;28;20854;-38
2021/01/30 18:11:23;;;;;;;9.57;8.43;;;3.40;87.60;;;;;;5016477;28;20455;-40
2021/01/30 18:13:56;;;;;;;10.60;9.50;;;3.40;87.50;;;;;;5012342;28;20527;-38
2021/01/30 18:16:26;;;;;;;11.37;10.17;;;3.40;87.50;;;;;;5036556;28;20518;-39
2021/01/30 18:18:54;;;;;;;10.43;9.33;;;3.40;87.40;;;;;;5012791;28;20890;-39
2021/01/30 18:21:21;;;;;;;10.83;9.60;;;3.40;87.40;;;;;;5031246;28;20456;-38
2021/01/30 18:23:47;;;;;;;10.70;8.80;;;3.50;87.40;;;;;;4996384;28;21020;-39
2021/01/30 18:26:13;;;;;;;12.13;10.90;;;3.50;87.20;;;;;;5032102;28;21046;-38
2021/01/30 18:28:44;;;;;;;11.30;10.20;;;3.40;87.40;;;;;;5027789;28;20644;-38
2021/01/30 18:31:11;;;;;;;10.03;8.30;;;3.40;87.50;;;;;;5015911;28;20823;-40
2021/01/30 18:33:38;;;;;;;10.87;9.27;;;3.40;87.50;;;;;;5016367;28;20460;-38
2021/01/30 18:36:11;;;;;;;11.40;9.53;;;3.40;87.20;;;;;;5013023;28;20555;-39
2021/01/30 18:38:38;;;;;;;10.67;9.60;;;3.40;87.40;;;;;;5029495;28;20493;-40
2021/01/30 18:41:04;;;;;;;13.00;11.47;;;3.40;87.60;;;;;;5007240;28;20556;-37
2021/01/30 18:43:30;;;;;;;11.10;9.00;;;3.40;87.60;;;;;;5017625;28;20452;-38
2021/01/30 18:45:59;;;;;;;13.87;10.87;;;3.40;87.80;;;;;;5016949;28;20957;-38
2021/01/30 18:48:25;;;;;;;11.67;9.33;;;3.40;87.60;;;;;;5047254;28;20531;-38
2021/01/30 18:50:52;;;;;;;13.03;10.20;;;3.40;87.70;;;;;;4996412;28;20455;-38
2021/01/30 18:53:19;;;;;;;11.93;9.93;;;3.40;87.50;;;;;;5016407;28;21030;-39
2021/01/30 18:55:45;;;;;;;10.07;9.00;;;3.40;87.60;;;;;;5018501;28;20451;-38
2021/01/30 18:58:17;;;;;;;11.77;9.70;;;3.40;87.50;;;;;;5031229;28;20562;-38
2021/01/30 19:00:44;;;;;;;13.57;10.67;;;3.40;87.80;;;;;;5016726;28;20548;-38
2021/01/30 19:03:10;;;;;;;14.33;9.87;;;3.40;87.70;;;;;;5023992;28;20565;-38
2021/01/30 19:05:36;;;;;;;14.20;10.77;;;3.40;87.60;;;;;;5009539;28;20525;-38
2021/01/30 19:08:06;;;;;;;10.13;8.20;;;3.40;87.50;;;;;;5025621;28;20579;-38
2021/01/30 19:10:33;;;;;;;12.47;8.80;;;3.40;87.40;;;;;;5028934;28;20550;-38
2021/01/30 19:12:59;;;;;;;8.97;8.03;;;3.50;87.40;;;;;;5012380;28;20464;-38
2021/01/30 19:15:27;;;;;;;11.23;9.33;;;3.40;87.10;;;;;;5012397;28;20477;-41
2021/01/30 19:17:56;;;;;;;12.17;9.00;;;3.40;87.40;;;;;;5032006;28;20479;-38
2021/01/30 19:20:27;;;;;;;11.67;8.47;;;3.40;87.50;;;;;;5002311;28;20475;-39
2021/01/30 19:22:54;;;;;;;14.50;9.20;;;3.40;87.40;;;;;;5040281;28;20586;-38
2021/01/30 19:25:20;;;;;;;13.93;9.83;;;3.40;87.50;;;;;;5022297;28;20478;-39
2021/01/30 19:27:50;;;;;;;12.63;9.20;;;3.40;87.50;;;;;;5027007;28;20477;-38
2021/01/30 19:30:19;;;;;;;17.07;10.33;;;3.40;87.50;;;;;;5033862;28;20470;-40
2021/01/30 19:32:48;;;;;;;13.60;9.53;;;3.40;87.30;;;;;;5030643;28;20467;-38
2021/01/30 19:35:14;;;;;;;13.03;8.57;;;3.40;87.30;;;;;;5029305;28;20455;-39
2021/01/30 19:37:40;;;;;;;9.30;8.40;;;3.40;87.20;;;;;;5012581;28;20475;-39
2021/01/30 19:40:07;;;;;;;10.60;7.50;;;3.40;87.10;;;;;;5026289;28;20526;-40
2021/01/30 19:42:35;;;;;;;10.73;8.03;;;3.40;87.30;;;;;;5027497;28;20459;-39
2021/01/30 19:45:07;;;;;;;9.57;7.73;;;3.30;87.50;;;;;;5024359;28;20454;-39
2021/01/30 19:47:37;;;;;;;14.00;9.10;;;3.30;87.70;;;;;;5025896;28;20510;-39
2021/01/30 19:50:09;;;;;;;10.07;8.17;;;3.30;87.70;;;;;;5029555;28;20541;-39
2021/01/30 19:52:36;;;;;;;9.80;8.90;;;3.30;87.80;;;;;;5028048;28;20484;-40
2021/01/30 19:55:03;;;;;;;10.30;8.40;;;3.30;87.70;;;;;;5005614;28;20817;-38
2021/01/30 19:57:29;;;;;;;9.33;8.33;;;3.30;87.60;;;;;;5034710;28;20571;-40
2021/01/30 19:59:56;;;;;;;11.80;9.00;;;3.30;87.60;;;;;;4998933;28;20485;-38
2021/01/30 20:02:22;;;;;;;9.87;7.70;;;3.40;87.50;;;;;;5035083;28;20539;-39
2021/01/30 20:05:06;;;;;;;8.37;7.00;;;3.40;87.30;;;;;;5034350;28;20455;-38
2021/01/30 20:07:35;;;;;;;7.83;6.37;;;3.40;87.00;;;;;;5029417;28;20452;-39
2021/01/30 20:10:02;;;;;;;9.30;7.30;;;3.40;87.10;;;;;;5032141;28;20498;-38
2021/01/30 20:12:31;;;;;;;10.20;7.50;;;3.40;87.00;;;;;;5020682;28;20473;-39
2021/01/30 20:14:58;;;;;;;10.73;6.83;;;3.30;87.20;;;;;;5021962;28;20499;-38
2021/01/30 20:17:24;;;;;;;8.30;7.40;;;3.30;87.10;;;;;;5019387;28;20536;-38
2021/01/30 20:19:51;;;;;;;8.30;7.47;;;3.30;87.20;;;;;;5020746;28;20569;-38
2021/01/30 20:22:17;;;;;;;9.30;7.17;;;3.20;87.30;;;;;;5017525;28;20490;-38
2021/01/30 20:24:48;;;;;;;8.00;7.20;;;3.30;87.30;;;;;;5017759;28;20475;-40
2021/01/30 20:27:26;;;;;;;13.00;7.93;;;3.30;87.20;;;;;;5034240;28;20486;-39
2021/01/30 20:29:53;;;;;;;10.10;7.77;;;3.30;87.50;;;;;;5049930;28;20517;-38
2021/01/30 20:32:21;;;;;;;9.33;8.17;;;3.30;87.40;;;;;;5017875;28;20483;-39
2021/01/30 20:34:51;;;;;;;11.80;7.63;;;3.30;87.30;;;;;;5027477;28;20459;-38
2021/01/30 20:37:18;;;;;;;10.00;6.90;;;3.20;87.50;;;;;;5031308;28;20910;-38
2021/01/30 20:39:46;;;;;;;9.80;8.43;;;3.20;87.40;;;;;;5015551;28;20499;-40
2021/01/30 20:42:12;;;;;;;9.23;7.03;;;3.20;87.40;;;;;;5026442;28;20467;-39
2021/01/30 20:44:44;;;;;;;9.90;7.87;;;3.30;87.40;;;;;;5048209;28;20459;-38
2021/01/30 20:47:10;;;;;;;9.27;7.90;;;3.30;87.30;;;;;;5047515;28;21002;-40
2021/01/30 20:49:37;;;;;;;8.30;7.20;;;3.30;87.30;;;;;;5043928;28;20498;-39
2021/01/30 20:52:04;;;;;;;9.60;7.90;;;3.30;87.40;;;;;;5030762;28;20547;-38
2021/01/30 20:54:31;;;;;;;9.20;7.30;;;3.30;87.20;;;;;;5013891;28;21247;-39
2021/01/30 20:56:58;;;;;;;10.53;7.77;;;3.20;87.40;;;;;;5025281;28;20491;-40
2021/01/30 20:59:25;;;;;;;8.80;6.40;;;3.20;87.60;;;;;;5007382;28;20537;-39
2021/01/30 21:01:51;;;;;;;8.77;7.60;;;3.20;87.20;;;;;;5024147;28;20534;-40
2021/01/30 21:04:21;;;;;;;11.23;6.93;;;3.20;87.30;;;;;;5017823;28;20455;-38
2021/01/30 21:06:47;;;;;;;9.53;8.47;;;3.10;87.30;;;;;;5037291;28;20447;-38
2021/01/30 21:09:18;;;;;;;7.93;7.10;;;3.10;87.70;;;;;;5034987;28;20570;-38
2021/01/30 21:11:46;;;;;;;8.93;6.80;;;3.10;87.80;;;;;;5026060;28;20448;-40
2021/01/30 21:14:12;;;;;;;9.67;7.20;;;3.20;87.60;;;;;;5052885;28;20467;-40
2021/01/30 21:16:39;;;;;;;11.00;8.30;;;3.20;87.60;;;;;;5011488;28;20943;-37
2021/01/30 21:19:06;;;;;;;9.53;7.77;;;3.20;87.70;;;;;;5046907;28;20557;-40
2021/01/30 21:21:33;;;;;;;15.03;7.30;;;3.20;87.40;;;;;;5003118;28;20954;-40
2021/01/30 21:24:03;;;;;;;10.70;8.30;;;3.20;87.30;;;;;;5019354;28;20878;-40
2021/01/30 21:26:31;;;;;;;9.70;7.57;;;3.20;87.30;;;;;;4999762;28;20483;-39
2021/01/30 21:28:57;;;;;;;9.70;7.50;;;3.20;87.30;;;;;;4998968;28;21164;-40
2021/01/30 21:31:25;;;;;;;10.90;6.77;;;3.20;87.30;;;;;;5001544;28;20475;-38
2021/01/30 21:33:58;;;;;;;8.53;6.33;;;3.20;87.30;;;;;;5019153;28;20753;-39
2021/01/30 21:36:27;;;;;;;11.57;7.40;;;3.30;87.10;;;;;;5024864;28;20486;-39
2021/01/30 21:38:54;;;;;;;7.67;6.60;;;3.20;86.80;;;;;;5016926;28;20499;-40
2021/01/30 21:41:24;;;;;;;7.67;6.80;;;3.20;87.20;;;;;;5031230;28;20451;-40
2021/01/30 21:43:53;;;;;;;8.27;7.47;;;3.20;87.30;;;;;;5034811;28;20485;-39
2021/01/30 21:46:24;;;;;;;9.63;6.70;;;3.20;87.20;;;;;;5024595;28;20451;-39
2021/01/30 21:48:51;;;;;;;11.97;8.90;;;3.20;87.00;;;;;;5026398;28;20451;-40
2021/01/30 21:51:21;;;;;;;10.47;7.60;;;3.10;87.20;;;;;;5038732;28;21012;-40
2021/01/30 21:53:50;;;;;;;10.40;8.37;;;3.10;87.50;;;;;;5033864;28;20467;-39
2021/01/30 21:56:17;;;;;;;10.80;7.67;;;3.10;87.50;;;;;;5014173;28;20483;-39
2021/01/30 21:58:51;;;;;;;9.30;7.43;;;3.10;87.60;;;;;;5037827;28;20586;-38
2021/01/30 22:01:21;;;;;;;10.07;7.27;;;3.10;87.30;;;;;;5034292;28;20538;-40
2021/01/30 22:03:47;;;;;;;9.97;7.30;;;3.10;87.30;;;;;;5036729;28;20486;-40
2021/01/30 22:06:17;;;;;;;9.20;7.23;;;3.10;87.30;;;;;;5009149;28;20951;-39
2021/01/30 22:08:51;;;;;;;8.17;7.33;;;3.20;87.20;;;;;;5028677;28;20962;-38
2021/01/30 22:11:18;;;;;;;11.07;8.03;;;3.20;87.00;;;;;;5011996;28;20459;-38
2021/01/30 22:13:44;;;;;;;12.40;9.73;;;3.20;87.10;;;;;;5034540;28;20535;-41
2021/01/30 22:16:15;;;;;;;8.87;7.30;;;3.20;86.80;;;;;;5011901;28;20531;-39
2021/01/30 22:18:45;;;;;;;9.83;7.97;;;3.20;87.00;;;;;;5031941;28;20543;-39
2021/01/30 22:21:11;;;;;;;8.97;7.10;;;3.10;87.00;;;;;;5003515;28;20868;-39
2021/01/30 22:23:43;;;;;;;11.20;7.63;;;3.10;87.20;;;;;;5026867;28;21009;-38
2021/01/30 22:26:12;;;;;;;11.60;8.63;;;3.10;87.20;;;;;;5030362;28;20455;-38
2021/01/30 22:28:47;;;;;;;10.13;7.47;;;3.10;87.10;;;;;;5034233;28;20451;-40
2021/01/30 22:31:13;;;;;;;11.33;8.63;;;3.10;87.20;;;;;;5009904;28;20452;-39
2021/01/30 22:33:43;;;;;;;8.77;7.20;;;3.10;87.10;;;;;;5032758;28;20459;-38
2021/01/30 22:36:14;;;;;;;10.37;7.60;;;3.10;87.20;;;;;;5009605;28;20447;-40
2021/01/30 22:38:44;;;;;;;9.90;8.23;;;3.10;87.30;;;;;;5029536;28;20570;-39
2021/01/30 22:41:10;;;;;;;12.53;9.23;;;3.10;87.20;;;;;;5001392;28;20450;-40
2021/01/30 22:43:40;;;;;;;10.70;8.53;;;3.10;87.30;;;;;;5011965;28;20491;-39
2021/01/30 22:46:15;;;;;;;10.83;8.20;;;3.10;87.00;;;;;;5029907;28;20530;-40
2021/01/30 22:48:45;;;;;;;10.67;8.63;;;3.10;87.20;;;;;;5030646;28;20546;-40
2021/01/30 22:51:17;;;;;;;14.50;10.47;;;3.10;87.10;;;;;;5013697;28;20499;-40
2021/01/30 22:53:45;;;;;;;15.73;10.07;;;3.10;86.90;;;;;;5044105;28;21036;-40
2021/01/30 22:56:14;;;;;;;14.57;9.90;;;3.10;86.90;;;;;;5013271;28;20578;-40
2021/01/30 22:58:41;;;;;;;15.93;10.60;;;3.10;86.70;;;;;;5029097;28;21003;-40
2021/01/30 23:01:10;;;;;;;11.83;10.00;;;3.10;86.70;;;;;;5025880;28;20455;-40
2021/01/30 23:03:39;;;;;;;15.30;9.80;;;3.10;86.80;;;;;;5010162;28;20452;-40
2021/01/30 23:06:05;;;;;;;14.03;9.40;;;3.10;86.50;;;;;;5009663;28;20459;-40
2021/01/30 23:08:40;;;;;;;12.70;9.53;;;3.10;86.80;;;;;;5029173;28;20723;-40
2021/01/30 23:11:07;;;;;;;13.53;9.20;;;3.10;86.70;;;;;;4996391;28;20539;-40
2021/01/30 23:13:40;;;;;;;10.67;7.83;;;3.10;86.60;;;;;;5029375;28;20881;-40
2021/01/30 23:16:10;;;;;;;12.63;9.70;;;3.10;86.50;;;;;;5027193;28;20475;-40
2021/01/30 23:18:40;;;;;;;10.33;8.10;;;3.10;86.00;;;;;;5029132;28;20518;-40
2021/01/30 23:21:07;;;;;;;11.70;9.07;;;3.10;86.20;;;;;;5003376;28;20567;-40
2021/01/30 23:23:34;;;;;;;10.97;7.97;;;3.10;86.20;;;;;;5019105;28;20845;-40
2021/01/30 23:26:01;;;;;;;12.10;9.00;;;3.10;86.20;;;;;;5041517;28;20550;-40
2021/01/30 23:28:28;;;;;;;12.10;10.27;;;3.10;86.00;;;;;;5018582;28;20529;-40
2021/01/30 23:30:58;;;;;;;12.30;9.30;;;3.00;86.20;;;;;;5035005;28;20542;-40
2021/01/30 23:33:25;;;;;;;11.87;9.00;;;3.00;86.20;;;;;;5042293;28;20946;-40
2021/01/30 23:35:51;;;;;;;11.97;9.37;;;3.10;86.40;;;;;;5043269;28;20507;-40
2021/01/30 23:38:19;;;;;;;9.60;7.97;;;3.10;86.60;;;;;;5054565;28;20489;-40
2021/01/30 23:40:46;;;;;;;12.40;8.70;;;3.10;86.30;;;;;;5039508;28;20455;-40
2021/01/30 23:43:14;;;;;;;13.53;8.53;;;3.10;86.40;;;;;;5047892;28;20451;-40
2021/01/30 23:45:40;;;;;;;8.40;7.03;;;3.20;86.40;;;;;;5034717;28;20526;-40
2021/01/30 23:48:09;;;;;;;12.70;8.00;;;3.10;86.30;;;;;;5050584;28;20494;-40
2021/01/30 23:50:39;;;;;;;12.37;9.73;;;3.10;86.30;;;;;;5017512;28;20462;-40
2021/01/30 23:53:05;;;;;;;10.07;8.50;;;3.10;85.60;;;;;;5033302;28;20478;-40
2021/01/30 23:55:35;;;;;;;10.47;8.17;;;3.10;85.70;;;;;;5039048;28;20531;-40
2021/01/30 23:58:03;;;;;;;9.60;7.30;;;3.10;85.50;;;;;;5030863;28;20722;-40
